Time;durP1;ratioP1;P1;durP2;ratioP2;P2;SDS_P1;SDS_P2;PMS_P1;PMS_P2;Temp;Humidity;BMP_temperature;BMP_pressure;BME280_temperature;BME280_humidity;BME280_pressure;Samples;Min_cycle;Max_cycle;Signal;HPM_P1;HPM_P2
2022/05/24 00:01:48;;;;;;;21.12;12.98;;;;;;;5.66;82.22;94256.81;1620454;86;21081;-50
2022/05/24 00:04:15;;;;;;;16.87;10.75;;;;;;;5.58;82.41;94250.00;1638625;86;21073;-49
2022/05/24 00:06:42;;;;;;;20.65;12.10;;;;;;;5.58;82.73;94244.55;1632877;86;21085;-50
2022/05/24 00:09:08;;;;;;;21.50;12.10;;;;;;;5.61;82.99;94249.90;1628690;86;21760;-49
2022/05/24 00:11:35;;;;;;;18.55;12.18;;;;;;;5.69;82.98;94249.13;1633615;86;21472;-49
2022/05/24 00:14:02;;;;;;;20.15;11.30;;;;;;;5.74;82.76;94243.92;1639514;86;21045;-49
2022/05/24 00:16:29;;;;;;;18.30;9.75;;;;;;;5.80;82.59;94242.84;1606473;86;21526;-50
2022/05/24 00:18:56;;;;;;;16.52;11.85;;;;;;;5.81;82.06;94250.59;1626581;86;20992;-49
2022/05/24 00:21:23;;;;;;;41.85;17.57;;;;;;;5.73;82.00;94256.04;1624371;86;21793;-50
2022/05/24 00:23:49;;;;;;;28.15;15.40;;;;;;;5.60;82.12;94255.80;1612589;86;21023;-51
2022/05/24 00:26:29;;;;;;;26.27;14.28;;;;;;;5.50;82.21;94259.53;1604061;87;21095;-48
2022/05/24 00:28:56;;;;;;;30.52;13.93;;;;;;;5.45;82.38;94265.51;1630759;86;21090;-49
2022/05/24 00:31:24;;;;;;;20.70;12.28;;;;;;;5.46;82.79;94268.41;1621610;86;21794;-48
2022/05/24 00:33:51;;;;;;;23.42;12.23;;;;;;;5.50;82.69;94264.99;1618093;86;21337;-49
2022/05/24 00:36:18;;;;;;;23.83;12.07;;;;;;;5.54;82.57;94277.94;1632339;86;21608;-49
2022/05/24 00:38:46;;;;;;;19.32;12.65;;;;;;;5.58;82.48;94281.38;1640801;86;21091;-49
2022/05/24 00:41:27;;;;;;;18.37;11.93;;;;;;;5.62;82.27;94271.14;1650240;85;21094;-51
2022/05/24 00:44:06;;;;;;;19.12;11.50;;;;;;;5.60;81.70;94276.27;1651245;85;21022;-49
2022/05/24 00:46:44;;;;;;;18.82;11.73;;;;;;;5.52;81.40;94266.69;1650063;85;21187;-49
2022/05/24 00:49:23;;;;;;;21.65;11.55;;;;;;;5.47;81.49;94259.81;1646789;86;21140;-49
2022/05/24 00:51:55;;;;;;;15.78;10.20;;;;;;;5.44;81.83;94262.61;1645694;86;21081;-48
2022/05/24 00:54:22;;;;;;;20.12;11.28;;;;;;;5.39;82.07;94252.97;1641044;86;21077;-49
2022/05/24 00:57:00;;;;;;;19.90;11.08;;;;;;;5.40;82.14;94255.87;1644143;85;21066;-48
2022/05/24 00:59:38;;;;;;;16.12;10.25;;;;;;;5.37;82.06;94247.18;1646037;86;21289;-49
2022/05/24 01:02:08;;;;;;;16.55;11.08;;;;;;;5.36;81.96;94250.32;1623585;87;21601;-48
2022/05/24 01:04:35;;;;;;;20.17;9.63;;;;;;;5.35;81.90;94251.52;1659862;84;21645;-49
2022/05/24 01:07:04;;;;;;;14.83;9.45;;;;;;;5.36;81.58;94247.59;1657305;84;20989;-49
2022/05/24 01:09:41;;;;;;;14.05;9.28;;;;;;;5.33;81.37;94236.17;1628389;86;21050;-49
2022/05/24 01:12:14;;;;;;;16.62;10.68;;;;;;;5.31;81.30;94237.98;1659599;84;21332;-49
2022/05/24 01:14:42;;;;;;;18.57;10.32;;;;;;;5.27;81.43;94240.61;1642273;86;21051;-49
2022/05/24 01:17:08;;;;;;;18.42;10.50;;;;;;;5.25;81.72;94242.39;1639579;86;21556;-49
2022/05/24 01:19:43;;;;;;;22.32;12.63;;;;;;;5.23;81.58;94246.75;1633046;86;21007;-49
2022/05/24 01:22:25;;;;;;;17.25;10.55;;;;;;;5.19;81.64;94250.13;1638812;86;21051;-50
2022/05/24 01:25:05;;;;;;;21.80;11.63;;;;;;;5.12;81.84;94250.31;1634755;86;21279;-49
2022/05/24 01:27:33;;;;;;;15.03;10.10;;;;;;;5.09;81.88;94241.62;1646372;86;21055;-49
2022/05/24 01:29:59;;;;;;;14.73;10.35;;;;;;;5.09;81.91;94245.70;1639711;87;21597;-49
2022/05/24 01:38:03;;;;;;;26.10;11.30;;;;;;;4.82;82.34;94232.12;1638136;86;22172;-49
2022/05/24 01:40:29;;;;;;;19.90;10.80;;;;;;;4.72;82.69;94237.97;1636745;86;21049;-49
2022/05/24 01:42:56;;;;;;;11.15;8.70;;;;;;;4.71;83.29;94240.52;1634055;86;21608;-50
2022/05/24 01:45:36;;;;;;;12.60;9.28;;;;;;;4.74;83.38;94238.89;1630985;86;21046;-49
2022/05/24 01:48:10;;;;;;;19.65;10.10;;;;;;;4.75;83.28;94239.09;1632765;86;21521;-48
2022/05/24 01:50:37;;;;;;;19.62;12.13;;;;;;;4.75;83.29;94239.84;1646881;86;21802;-48
2022/05/24 01:53:09;;;;;;;23.65;11.28;;;;;;;4.75;83.25;94243.18;1641212;86;21089;-49
2022/05/24 01:55:52;;;;;;;30.20;14.68;;;;;;;4.77;83.26;94246.25;1627969;86;21006;-48
2022/05/24 01:58:21;;;;;;;78.72;35.33;;;;;;;4.77;83.08;94239.44;1656004;85;21122;-50
2022/05/24 02:01:08;;;;;;;56.55;27.80;;;;;;;4.79;82.98;94239.78;1644238;86;21035;-48
2022/05/24 02:03:38;;;;;;;45.08;22.55;;;;;;;4.82;83.02;94248.47;1658932;85;21193;-50
2022/05/24 02:06:24;;;;;;;31.73;15.68;;;;;;;4.83;82.71;94239.85;1637283;86;21118;-49
2022/05/24 02:08:53;;;;;;;22.37;12.50;;;;;;;4.81;82.52;94242.23;1627429;86;21081;-48
2022/05/24 02:11:24;;;;;;;14.20;10.20;;;;;;;4.77;82.29;94242.91;1640752;86;21120;-49
2022/05/24 02:14:18;;;;;;;23.05;11.48;;;;;;;4.74;82.36;94242.40;1584570;87;21042;-50
2022/05/24 02:16:56;;;;;;;14.78;9.38;;;;;;;4.69;82.51;94239.40;1640284;86;21183;-47
2022/05/24 02:19:23;;;;;;;19.10;11.65;;;;;;;4.69;82.83;94240.18;1623204;86;21049;-48
2022/05/24 02:21:55;;;;;;;14.80;9.43;;;;;;;4.69;82.86;94240.76;1647349;85;21196;-49
2022/05/24 02:24:23;;;;;;;14.40;9.18;;;;;;;4.68;83.00;94238.64;1693962;84;21514;-48
2022/05/24 02:26:50;;;;;;;21.45;11.73;;;;;;;4.66;82.95;94245.11;1700012;83;21014;-49
2022/05/24 02:29:19;;;;;;;27.73;11.88;;;;;;;4.61;82.66;94245.59;1700664;84;21961;-49
2022/05/24 02:31:47;;;;;;;36.63;12.03;;;;;;;4.59;82.80;94252.05;1695005;84;21556;-48
2022/05/24 02:34:13;;;;;;;21.23;12.33;;;;;;;4.62;83.12;94249.84;1694808;84;21027;-48
2022/05/24 02:36:41;;;;;;;21.90;11.05;;;;;;;4.62;83.02;94244.39;1659958;83;21533;-48
2022/05/24 02:39:08;;;;;;;22.22;12.50;;;;;;;4.69;83.08;94246.99;1693826;84;21034;-49
2022/05/24 02:41:38;;;;;;;21.02;12.33;;;;;;;4.73;82.52;94242.80;1693908;84;21176;-48
2022/05/24 02:44:14;;;;;;;19.05;13.00;;;;;;;4.72;82.19;94248.08;1692859;84;21011;-48
2022/05/24 02:46:46;;;;;;;18.98;12.25;;;;;;;4.70;82.08;94246.37;1694584;83;21066;-48
2022/05/24 02:49:13;;;;;;;28.90;13.13;;;;;;;4.75;82.40;94248.02;1696698;84;21066;-49
2022/05/24 02:51:41;;;;;;;26.07;12.58;;;;;;;4.83;82.27;94236.38;1670379;84;21576;-49
2022/05/24 02:54:08;;;;;;;23.12;12.45;;;;;;;4.87;81.97;94235.70;1697288;84;22181;-48
2022/05/24 02:56:35;;;;;;;19.48;11.40;;;;;;;4.92;82.10;94235.97;1693519;84;20964;-49
2022/05/24 02:59:04;;;;;;;16.75;11.10;;;;;;;5.02;82.10;94233.61;1694703;84;21068;-51
2022/05/24 03:01:32;;;;;;;16.50;10.70;;;;;;;5.11;81.78;94228.94;1696998;83;21025;-49
2022/05/24 03:03:58;;;;;;;24.07;12.90;;;;;;;5.21;81.65;94227.33;1658030;84;21623;-48
2022/05/24 03:06:26;;;;;;;25.25;14.55;;;;;;;5.24;81.11;94223.75;1642581;86;20979;-49
2022/05/24 03:14:25;;;;;;;16.25;10.45;;;;;;;5.29;80.81;94225.95;1694517;84;20975;-49
2022/05/24 03:16:52;;;;;;;18.55;10.85;;;;;;;5.30;80.85;94238.39;1697943;83;21007;-49
2022/05/24 03:19:22;;;;;;;19.73;11.45;;;;;;;5.33;80.93;94230.14;1695868;84;21303;-49
2022/05/24 03:21:50;;;;;;;16.50;11.75;;;;;;;5.40;80.98;94227.84;1709460;83;21109;-50
2022/05/24 03:24:18;;;;;;;17.15;11.57;;;;;;;5.48;81.11;94229.19;1697071;83;21447;-48
2022/05/24 03:26:46;;;;;;;17.27;10.78;;;;;;;5.53;80.93;94229.45;1656818;84;21547;-49
2022/05/24 03:29:13;;;;;;;22.35;10.60;;;;;;;5.54;80.78;94232.94;1658529;84;21094;-48
2022/05/24 03:31:40;;;;;;;14.43;10.08;;;;;;;5.57;81.08;94230.73;1644918;85;21512;-49
2022/05/24 03:34:07;;;;;;;29.55;10.00;;;;;;;5.67;81.17;94233.78;1647135;86;21004;-49
2022/05/24 03:36:34;;;;;;;11.85;9.55;;;;;;;5.74;80.94;94236.33;1644133;86;21416;-49
2022/05/24 03:39:01;;;;;;;18.17;9.80;;;;;;;5.80;81.00;94233.30;1645001;86;21074;-49
2022/05/24 03:41:28;;;;;;;13.85;9.63;;;;;;;5.86;81.00;94230.98;1656836;85;20977;-49
2022/05/24 03:43:54;;;;;;;16.20;10.55;;;;;;;5.97;80.95;94225.25;1623500;86;21771;-48
2022/05/24 03:46:22;;;;;;;15.83;10.00;;;;;;;6.00;80.48;94231.20;1637776;86;21556;-49
2022/05/24 03:48:49;;;;;;;17.00;10.45;;;;;;;6.03;80.43;94224.88;1636732;85;21613;-48
2022/05/24 03:51:17;;;;;;;12.33;10.28;;;;;;;6.05;80.30;94227.95;1653662;85;21003;-48
2022/05/24 03:53:44;;;;;;;11.95;9.75;;;;;;;6.09;80.53;94225.88;1658894;85;20975;-49
2022/05/24 03:56:11;;;;;;;15.35;10.13;;;;;;;6.13;80.48;94223.84;1656901;84;21179;-48
2022/05/24 03:58:38;;;;;;;14.73;9.78;;;;;;;6.19;80.74;94222.86;1655122;85;20991;-48
2022/05/24 04:01:06;;;;;;;12.05;10.38;;;;;;;6.27;80.52;94220.12;1660285;84;20986;-48
2022/05/24 04:03:32;;;;;;;12.85;9.45;;;;;;;6.34;80.21;94221.89;1603399;87;21594;-48
2022/05/24 04:06:00;;;;;;;12.88;10.00;;;;;;;6.40;80.15;94225.62;1637900;86;21256;-49
2022/05/24 04:08:29;;;;;;;12.73;8.88;;;;;;;6.45;79.94;94226.45;1627010;87;21434;-50
2022/05/24 04:11:03;;;;;;;17.60;10.20;;;;;;;6.52;80.09;94224.90;1645388;86;20962;-48
2022/05/24 04:13:30;;;;;;;15.28;10.08;;;;;;;6.62;80.06;94227.91;1641753;86;21073;-51
2022/05/24 04:15:58;;;;;;;12.35;9.73;;;;;;;6.71;80.11;94228.80;1660240;86;21126;-53
2022/05/24 04:18:25;;;;;;;16.45;10.18;;;;;;;6.81;80.08;94231.84;1657004;86;21051;-48
2022/05/24 04:20:54;;;;;;;13.13;9.60;;;;;;;6.96;79.92;94239.02;1636343;86;21518;-48
2022/05/24 04:23:21;;;;;;;21.23;9.68;;;;;;;7.05;79.51;94237.16;1641358;86;21023;-49
2022/05/24 04:25:48;;;;;;;16.93;9.13;;;;;;;7.15;79.44;94236.84;1639120;86;21583;-51
2022/05/24 04:28:18;;;;;;;15.05;8.93;;;;;;;7.24;79.28;94232.08;1632648;86;20983;-49
2022/05/24 04:30:47;;;;;;;12.10;8.18;;;;;;;7.27;79.18;94231.98;1632298;86;21438;-52
2022/05/24 04:33:14;;;;;;;9.55;8.48;;;;;;;7.37;79.29;94222.66;1601556;86;21100;-53
2022/05/24 04:35:43;;;;;;;9.20;7.97;;;;;;;7.51;79.10;94229.06;1626393;86;21055;-54
2022/05/24 04:38:10;;;;;;;11.85;8.20;;;;;;;7.59;78.98;94227.64;1633262;86;21037;-49
2022/05/24 04:43:23;;;;;;;13.35;8.65;;;;;;;7.75;78.51;94224.77;1635768;86;21079;-48
2022/05/24 04:45:53;;;;;;;19.95;11.73;;;;;;;7.84;78.36;94234.42;1640840;86;21157;-50
2022/05/24 04:48:21;;;;;;;20.35;12.58;;;;;;;7.88;78.29;94230.21;1635889;86;21128;-50
2022/05/24 04:50:53;;;;;;;20.75;11.50;;;;;;;7.93;78.04;94231.79;1643406;86;21095;-49
2022/05/24 04:53:20;;;;;;;19.03;12.37;;;;;;;8.04;77.75;94234.92;1636080;86;21642;-49
2022/05/24 04:55:49;;;;;;;14.70;10.30;;;;;;;8.13;77.64;94229.54;1635618;86;20972;-49
2022/05/24 04:58:19;;;;;;;12.45;9.53;;;;;;;8.25;77.25;94240.31;1639208;86;21161;-49
2022/05/24 05:00:46;;;;;;;17.80;10.20;;;;;;;8.31;77.08;94239.31;1628369;86;21033;-49
2022/05/24 05:03:17;;;;;;;14.78;9.83;;;;;;;8.41;76.94;94240.15;1609771;86;21557;-49
2022/05/24 05:05:46;;;;;;;11.85;7.97;;;;;;;8.51;76.90;94244.47;1637577;86;20996;-48
2022/05/24 05:08:14;;;;;;;12.75;8.93;;;;;;;8.60;76.66;94241.81;1645553;86;21187;-48
2022/05/24 05:10:41;;;;;;;13.00;7.90;;;;;;;8.70;76.42;94230.45;1656058;85;21160;-49
2022/05/24 05:13:10;;;;;;;12.68;8.58;;;;;;;8.87;76.08;94222.78;1657897;85;21557;-48
2022/05/24 05:15:38;;;;;;;9.95;7.92;;;;;;;9.03;75.57;94221.97;1654600;86;21027;-49
2022/05/24 05:18:08;;;;;;;8.05;6.97;;;;;;;9.14;75.33;94223.09;1647135;86;21114;-49
2022/05/24 05:20:41;;;;;;;8.03;6.75;;;;;;;9.24;75.07;94223.91;1645837;85;21082;-49
2022/05/24 05:23:10;;;;;;;7.00;6.25;;;;;;;9.34;75.15;94226.83;1647544;86;21230;-48
2022/05/24 05:25:38;;;;;;;8.48;6.03;;;;;;;9.47;74.88;94224.75;1642643;86;21040;-49
2022/05/24 05:28:05;;;;;;;13.40;6.78;;;;;;;9.55;74.65;94230.11;1641332;86;21091;-54
2022/05/24 05:33:17;;;;;;;11.40;7.12;;;;;;;9.69;74.33;94231.70;1631193;86;21201;-50
2022/05/24 05:35:46;;;;;;;8.03;6.53;;;;;;;9.69;74.34;94233.66;1700192;82;21177;-49
2022/05/24 05:38:13;;;;;;;8.78;7.05;;;;;;;9.60;74.55;94235.77;1688268;83;21058;-49
2022/05/24 05:40:40;;;;;;;6.92;6.20;;;;;;;9.63;74.91;94234.11;1618351;84;21087;-48
2022/05/24 05:43:09;;;;;;;8.13;6.33;;;;;;;9.73;74.67;94228.79;1702467;82;21501;-50
2022/05/24 05:45:37;;;;;;;8.65;6.55;;;;;;;9.81;74.36;94230.80;1681180;83;21081;-49
2022/05/24 05:48:06;;;;;;;7.20;6.50;;;;;;;9.82;74.28;94228.83;1705618;82;21570;-49
2022/05/24 05:56:17;;;;;;;11.68;7.87;;;;;;;9.96;74.27;94218.64;1767233;79;26248;-51
2022/05/24 05:58:44;;;;;;;9.48;7.22;;;;;;;9.96;74.32;94218.02;1706200;82;21179;-54
2022/05/24 06:01:19;;;;;;;10.43;7.75;;;;;;;10.09;74.25;94215.16;1712948;81;22123;-53
2022/05/24 06:03:48;;;;;;;16.05;7.22;;;;;;;10.23;73.87;94214.56;1723554;81;21499;-55
2022/05/24 06:06:19;;;;;;;8.50;6.67;;;;;;;10.41;73.53;94220.06;1698165;81;21025;-59
2022/05/24 06:08:46;;;;;;;8.25;6.90;;;;;;;10.55;73.30;94214.70;1721960;80;21023;-60
2022/05/24 06:11:13;;;;;;;8.18;7.28;;;;;;;10.71;72.60;94210.89;1715743;81;21647;-56
2022/05/24 06:13:40;;;;;;;8.53;6.97;;;;;;;10.81;71.73;94212.54;1727850;81;21171;-56
2022/05/24 06:16:06;;;;;;;9.28;6.83;;;;;;;10.86;71.58;94216.06;1714438;81;21152;-56
2022/05/24 06:18:33;;;;;;;8.43;6.42;;;;;;;10.95;71.44;94211.91;1693168;81;21088;-53
2022/05/24 06:21:01;;;;;;;11.05;6.28;;;;;;;11.04;71.35;94211.91;1712210;81;21030;-55
2022/05/24 06:23:29;;;;;;;6.35;5.75;;;;;;;11.16;71.02;94210.19;1721923;81;21097;-57
2022/05/24 06:25:56;;;;;;;17.00;7.67;;;;;;;11.24;70.96;94214.91;1725808;81;21159;-54
2022/05/24 06:28:24;;;;;;;7.50;6.03;;;;;;;11.38;70.62;94219.73;1729984;81;21044;-57
2022/05/24 06:30:51;;;;;;;6.28;5.67;;;;;;;11.49;70.04;94222.02;1694028;80;22020;-53
2022/05/24 06:33:19;;;;;;;6.72;5.92;;;;;;;11.56;69.51;94208.66;1706819;81;21083;-53
2022/05/24 06:35:46;;;;;;;5.72;5.03;;;;;;;11.63;69.21;94202.84;1716555;81;21741;-51
2022/05/24 06:38:15;;;;;;;8.13;5.60;;;;;;;11.76;69.11;94204.77;1730902;80;21173;-54
2022/05/24 06:40:43;;;;;;;8.13;5.10;;;;;;;11.91;69.24;94202.08;1728735;81;21667;-52
2022/05/24 06:43:10;;;;;;;7.58;4.65;;;;;;;12.03;68.77;94199.08;1717838;81;21024;-52
2022/05/24 06:45:38;;;;;;;5.30;4.80;;;;;;;12.15;68.65;94196.72;1676607;80;21000;-60
2022/05/24 06:48:09;;;;;;;6.22;5.12;;;;;;;12.26;68.28;94194.17;1725032;81;20977;-55
2022/05/24 06:50:38;;;;;;;7.08;4.53;;;;;;;12.40;68.29;94200.95;1718674;80;22138;-54
2022/05/24 06:53:07;;;;;;;14.65;5.67;;;;;;;12.56;68.11;94189.62;1707616;82;21075;-56
2022/05/24 06:55:33;;;;;;;10.32;5.15;;;;;;;12.78;67.99;94186.53;1728380;81;21026;-54
2022/05/24 06:58:00;;;;;;;4.78;4.25;;;;;;;13.03;67.63;94184.01;1722831;81;21538;-58
2022/05/24 07:03:15;;;;;;;7.25;5.03;;;;;;;13.43;66.20;94179.28;1725806;81;21234;-55
2022/05/24 07:05:44;;;;;;;5.42;4.83;;;;;;;13.63;65.47;94184.23;1714331;81;21683;-55
2022/05/24 07:08:13;;;;;;;5.83;4.22;;;;;;;13.83;65.63;94182.14;1695104;81;21125;-54
2022/05/24 07:10:42;;;;;;;5.83;4.70;;;;;;;14.03;65.05;94176.63;1648432;83;21528;-52
2022/05/24 07:13:13;;;;;;;9.43;4.92;;;;;;;14.16;64.74;94172.95;1667999;83;21122;-52
2022/05/24 07:15:40;;;;;;;6.40;4.42;;;;;;;14.31;64.17;94169.47;1695299;81;21249;-57
2022/05/24 07:18:07;;;;;;;5.37;4.50;;;;;;;14.45;63.22;94160.47;1735546;81;21103;-56
2022/05/24 07:20:36;;;;;;;5.65;4.87;;;;;;;14.61;63.46;94161.28;1734767;80;21060;-57
2022/05/24 07:23:19;;;;;;;4.97;4.17;;;;;;;14.78;62.93;94151.15;1716777;81;21072;-54
2022/05/24 07:25:46;;;;;;;5.55;4.10;;;;;;;14.92;62.14;94151.67;1722944;80;22285;-57
2022/05/24 07:28:16;;;;;;;4.65;4.00;;;;;;;15.10;61.51;94147.80;1717911;81;21224;-54
2022/05/24 07:30:43;;;;;;;5.90;4.37;;;;;;;15.24;60.10;94149.69;1721373;81;20957;-57
2022/05/24 07:33:10;;;;;;;4.42;3.72;;;;;;;15.29;60.06;94148.38;1736599;81;21687;-59
2022/05/24 07:35:37;;;;;;;7.80;5.25;;;;;;;15.40;59.28;94148.45;1692905;82;21109;-54
2022/05/24 07:38:09;;;;;;;5.22;3.72;;;;;;;15.54;59.34;94143.41;1691904;81;21540;-59
2022/05/24 07:46:11;;;;;;;4.20;3.80;;;;;;;15.88;57.45;94132.66;1725503;79;21499;-54
2022/05/24 07:48:39;;;;;;;5.08;4.25;;;;;;;16.01;57.37;94136.39;1725625;80;21073;-60
2022/05/24 07:51:06;;;;;;;5.08;3.58;;;;;;;16.16;56.73;94134.97;1697354;81;21142;-53
2022/05/24 07:53:33;;;;;;;3.20;2.90;;;;;;;16.28;55.71;94129.59;1731287;80;21157;-58
2022/05/24 07:56:00;;;;;;;4.75;3.70;;;;;;;16.37;54.97;94123.22;1716853;80;22244;-56
2022/05/24 07:58:27;;;;;;;3.25;2.87;;;;;;;16.44;54.75;94128.30;1701457;81;21325;-55
2022/05/24 08:00:55;;;;;;;5.40;3.20;;;;;;;16.52;53.50;94131.37;1724265;80;21025;-57
2022/05/24 08:03:22;;;;;;;4.08;3.22;;;;;;;16.53;53.08;94121.12;1722914;81;20957;-61
2022/05/24 08:05:49;;;;;;;4.75;3.05;;;;;;;16.55;53.32;94123.42;1718665;81;21110;-53
2022/05/24 08:08:17;;;;;;;3.72;3.00;;;;;;;16.67;53.54;94115.23;1662687;84;21080;-56
2022/05/24 08:10:44;;;;;;;4.05;3.10;;;;;;;16.84;54.02;94116.80;1646350;83;21041;-56
2022/05/24 08:13:13;;;;;;;3.10;2.80;;;;;;;17.01;53.03;94119.59;1650407;84;21069;-55
2022/05/24 08:15:40;;;;;;;3.90;3.50;;;;;;;17.14;53.07;94118.48;1709096;81;21203;-55
2022/05/24 08:18:08;;;;;;;3.87;3.00;;;;;;;17.25;52.19;94118.50;1705478;81;21803;-52
2022/05/24 08:20:37;;;;;;;3.75;2.52;;;;;;;17.39;52.06;94110.55;1718699;81;21032;-56
2022/05/24 08:23:07;;;;;;;3.62;2.70;;;;;;;17.57;51.86;94103.08;1718194;80;21110;-56
2022/05/24 08:25:35;;;;;;;6.65;2.83;;;;;;;17.76;51.59;94106.84;1714266;82;21572;-56
2022/05/24 08:28:03;;;;;;;3.22;2.55;;;;;;;17.91;50.62;94109.48;1701684;80;21145;-53
2022/05/24 08:30:31;;;;;;;3.02;2.72;;;;;;;18.04;50.58;94106.91;1711779;81;21469;-62
2022/05/24 08:32:58;;;;;;;2.52;2.33;;;;;;;18.18;50.51;94102.33;1678066;82;21217;-55
2022/05/24 08:35:25;;;;;;;23.70;2.85;;;;;;;18.31;49.36;94093.57;1657566;84;21384;-59
2022/05/24 08:37:52;;;;;;;2.40;2.20;;;;;;;18.42;47.53;94094.27;1711012;80;21062;-55
2022/05/24 08:40:22;;;;;;;3.72;1.90;;;;;;;18.49;46.42;94092.33;1681368;80;21334;-56
2022/05/24 08:43:16;;;;;;;2.85;2.45;;;;;;;18.56;45.42;94093.20;1705324;81;21239;-56
2022/05/24 08:49:03;;;;;;;2.95;1.80;;;;;;;18.76;45.52;94091.45;1725034;81;21053;-56
2022/05/24 08:51:47;;;;;;;2.47;2.15;;;;;;;18.96;44.54;94087.51;1716092;81;21006;-54
2022/05/24 08:54:18;;;;;;;2.22;2.02;;;;;;;19.12;45.34;94083.23;1699596;81;21037;-53
2022/05/24 08:56:53;;;;;;;4.03;2.52;;;;;;;19.27;44.46;94083.66;1717948;80;21297;-59
2022/05/24 08:59:29;;;;;;;4.85;1.80;;;;;;;19.38;42.34;94082.16;1703827;82;21019;-60
2022/05/24 09:01:56;;;;;;;2.40;1.82;;;;;;;19.51;43.47;94082.93;1715006;81;21606;-59
2022/05/24 09:04:24;;;;;;;3.00;1.60;;;;;;;19.71;43.42;94070.70;1706963;81;21573;-61
2022/05/24 09:07:15;;;;;;;3.42;1.87;;;;;;;19.90;43.47;94082.69;1706794;81;21527;-65
2022/05/24 09:10:08;;;;;;;3.60;2.75;;;;;;;20.05;43.03;94076.09;1699713;81;21263;-61
2022/05/24 09:13:08;;;;;;;2.00;1.70;;;;;;;20.24;43.36;94076.89;1702268;81;21042;-56
2022/05/24 09:16:15;;;;;;;2.30;2.10;;;;;;;20.35;40.22;94072.59;1708413;82;21076;-54
2022/05/24 09:19:25;;;;;;;2.33;1.62;;;;;;;20.36;39.83;94071.30;1711007;82;22367;-53
2022/05/24 09:21:53;;;;;;;4.45;2.17;;;;;;;20.43;41.84;94074.26;1708200;81;21043;-55
2022/05/24 09:24:42;;;;;;;1.98;1.60;;;;;;;20.58;41.43;94068.22;1722943;81;21104;-55
2022/05/24 09:27:25;;;;;;;2.05;1.70;;;;;;;20.72;41.37;94069.82;1699268;81;21475;-56
2022/05/24 09:30:08;;;;;;;1.98;1.80;;;;;;;20.81;39.35;94064.61;1717512;81;21042;-56
2022/05/24 09:32:42;;;;;;;3.30;3.00;;;;;;;20.89;39.41;94060.59;1710864;80;21555;-59
2022/05/24 09:35:22;;;;;;;3.60;2.00;;;;;;;21.02;40.71;94054.41;1666451;82;21721;-55
2022/05/24 09:38:08;;;;;;;3.37;1.70;;;;;;;21.17;40.39;94057.48;1686461;82;21233;-57
2022/05/24 09:40:58;;;;;;;2.35;2.00;;;;;;;21.27;39.83;94050.20;1717653;81;21136;-55
2022/05/24 09:43:29;;;;;;;2.12;1.62;;;;;;;21.32;38.43;94052.80;1711525;81;21518;-61
2022/05/24 09:46:10;;;;;;;2.85;2.05;;;;;;;21.34;39.32;94053.02;1660051;84;21098;-55
2022/05/24 09:48:38;;;;;;;2.05;1.50;;;;;;;21.40;40.80;94055.08;1674367;84;21649;-56
2022/05/24 09:51:11;;;;;;;4.45;1.62;;;;;;;21.55;40.47;94045.54;1682835;84;21904;-54
2022/05/24 09:53:48;;;;;;;1.70;1.60;;;;;;;21.66;38.87;94048.92;1670601;83;21204;-55
2022/05/24 09:56:25;;;;;;;3.52;1.52;;;;;;;21.74;38.42;94043.45;1641233;84;21003;-57
2022/05/24 09:59:02;;;;;;;2.08;1.67;;;;;;;21.86;38.49;94043.38;1673033;83;21137;-55
2022/05/24 10:01:40;;;;;;;1.62;1.50;;;;;;;21.99;37.39;94044.12;1701421;81;21039;-57
2022/05/24 10:04:26;;;;;;;1.80;1.40;;;;;;;22.13;37.98;94040.78;1706710;81;21795;-57
2022/05/24 10:07:06;;;;;;;2.70;1.60;;;;;;;22.28;37.17;94043.07;1711495;80;21043;-56
2022/05/24 10:09:51;;;;;;;3.42;1.67;;;;;;;22.44;37.92;94042.75;1706890;81;21131;-54
2022/05/24 10:12:43;;;;;;;4.25;1.50;;;;;;;22.59;37.26;94038.74;1710391;81;21064;-54
2022/05/24 10:15:31;;;;;;;2.60;1.62;;;;;;;22.64;36.82;94044.88;1717147;81;21118;-57
2022/05/24 10:18:44;;;;;;;6.15;1.30;;;;;;;22.45;35.40;94043.52;1713257;82;21551;-53
2022/05/24 10:21:43;;;;;;;1.50;1.40;;;;;;;22.17;36.21;94035.63;1704222;80;21053;-54
2022/05/24 10:24:38;;;;;;;1.50;1.40;;;;;;;21.90;36.57;94034.77;1718495;81;21502;-56
2022/05/24 10:27:13;;;;;;;5.90;1.80;;;;;;;21.78;37.50;94029.88;1713399;82;21096;-58
2022/05/24 10:29:52;;;;;;;3.95;1.60;;;;;;;21.65;37.84;94039.69;1710417;81;21103;-54
2022/05/24 10:39:41;;;;;;;1.55;1.45;;;;;;;22.05;39.90;94027.96;1702266;81;21242;-55
2022/05/24 10:42:47;;;;;;;4.12;1.80;;;;;;;22.73;38.97;94019.20;1728233;81;21119;-55
2022/05/24 10:45:18;;;;;;;1.90;1.55;;;;;;;23.31;38.31;94021.69;1718188;81;21509;-52
2022/05/24 10:48:01;;;;;;;2.37;1.60;;;;;;;23.97;37.23;94016.56;1701270;82;21176;-55
2022/05/24 10:50:44;;;;;;;3.67;1.60;;;;;;;24.38;37.18;94023.50;1712874;81;21632;-54
2022/05/24 10:53:17;;;;;;;2.55;1.72;;;;;;;24.86;36.74;94018.38;1715747;81;21525;-53
2022/05/24 10:56:01;;;;;;;1.98;1.40;;;;;;;25.37;35.06;94023.34;1713137;81;21085;-59
2022/05/24 10:58:32;;;;;;;8.78;1.98;;;;;;;25.63;35.41;94021.61;1679167;82;21096;-55
2022/05/24 11:01:10;;;;;;;3.15;1.37;;;;;;;25.92;34.36;94020.89;1714684;81;21457;-54
2022/05/24 11:03:47;;;;;;;2.37;1.52;;;;;;;26.29;34.42;94022.24;1697229;82;21097;-56
2022/05/24 11:06:30;;;;;;;5.03;1.60;;;;;;;26.57;33.43;94022.03;1705060;81;21065;-52
2022/05/24 11:09:22;;;;;;;5.35;1.92;;;;;;;26.83;32.97;94022.23;1696493;82;21139;-58
2022/05/24 11:12:07;;;;;;;1.40;1.17;;;;;;;27.13;31.66;94026.34;1706484;80;21071;-55
2022/05/24 11:15:03;;;;;;;1.98;1.65;;;;;;;27.49;31.50;94023.88;1713136;80;21778;-57
2022/05/24 11:17:31;;;;;;;1.45;1.25;;;;;;;27.81;31.71;94021.05;1653257;83;22263;-57
2022/05/24 11:19:59;;;;;;;3.67;1.60;;;;;;;28.11;30.94;94018.72;1704692;81;21163;-55
2022/05/24 11:23:03;;;;;;;3.72;1.30;;;;;;;28.25;30.92;94017.82;1703003;81;21074;-56
2022/05/24 11:25:41;;;;;;;1.55;1.20;;;;;;;28.29;30.76;94022.42;1719502;81;22095;-58
2022/05/24 11:28:27;;;;;;;2.33;1.30;;;;;;;28.09;30.52;94019.97;1725242;81;21344;-58
2022/05/24 11:31:00;;;;;;;2.37;1.50;;;;;;;28.17;29.87;94021.40;1719751;81;21040;-54
2022/05/24 11:33:36;;;;;;;1.90;1.50;;;;;;;28.08;30.40;94023.47;1710678;81;21127;-60
2022/05/24 11:36:34;;;;;;;1.35;1.25;;;;;;;28.30;29.99;94024.58;1707994;81;21052;-55
2022/05/24 11:39:24;;;;;;;4.42;1.42;;;;;;;28.54;30.11;94022.38;1718170;81;21430;-57
2022/05/24 11:42:29;;;;;;;1.52;1.30;;;;;;;28.97;29.18;94018.91;1711980;82;21138;-54
2022/05/24 11:44:58;;;;;;;3.45;1.32;;;;;;;29.29;29.06;94025.78;1714300;81;21042;-56
2022/05/24 11:47:40;;;;;;;1.87;1.10;;;;;;;29.35;28.60;94021.33;1695814;81;21118;-58
2022/05/24 11:50:33;;;;;;;2.70;1.50;;;;;;;29.02;28.35;94024.98;1713903;81;21000;-58
2022/05/24 11:53:17;;;;;;;2.35;1.30;;;;;;;28.37;28.80;94020.97;1643053;85;21119;-51
2022/05/24 11:56:03;;;;;;;3.30;1.50;;;;;;;27.61;29.53;94027.77;1662490;84;21179;-54
2022/05/24 11:58:36;;;;;;;4.87;1.30;;;;;;;27.49;30.77;94024.64;1663329;84;21110;-56
2022/05/24 12:01:26;;;;;;;1.65;1.35;;;;;;;28.09;29.95;94023.55;1647636;84;21549;-53
2022/05/24 12:10:10;;;;;;;1.57;0.93;;;;;;;29.92;27.39;94023.09;1712804;81;22404;-58
2022/05/24 12:12:57;;;;;;;1.95;1.55;;;;;;;30.12;27.65;94028.25;1711630;81;21494;-54
2022/05/24 12:15:28;;;;;;;1.72;1.12;;;;;;;29.91;27.83;94025.16;1702507;82;21011;-55
2022/05/24 12:18:03;;;;;;;5.53;1.10;;;;;;;29.77;27.11;94023.31;1684261;82;21079;-55
2022/05/24 12:20:39;;;;;;;1.87;1.10;;;;;;;29.78;28.42;94019.80;1697927;82;21053;-54
2022/05/24 12:23:22;;;;;;;2.83;1.37;;;;;;;30.02;28.07;94018.98;1726000;81;22354;-56
2022/05/24 12:26:01;;;;;;;2.30;1.20;;;;;;;30.47;27.94;94025.97;1684854;81;21123;-60
2022/05/24 12:28:41;;;;;;;5.08;1.25;;;;;;;30.99;26.99;94027.83;1712642;81;20991;-56
2022/05/24 12:31:19;;;;;;;2.75;0.93;;;;;;;31.41;26.82;94025.96;1729014;80;21101;-56
2022/05/24 12:34:13;;;;;;;2.80;1.10;;;;;;;31.75;26.63;94029.19;1719072;80;20962;-56
2022/05/24 12:36:46;;;;;;;1.70;1.30;;;;;;;31.97;26.24;94024.41;1688649;82;22350;-56
2022/05/24 12:39:16;;;;;;;2.17;1.10;;;;;;;32.32;25.40;94021.87;1719846;81;20974;-56
2022/05/24 12:41:49;;;;;;;2.70;1.27;;;;;;;32.17;24.99;94027.93;1704491;82;21421;-58
2022/05/24 12:44:30;;;;;;;4.10;1.60;;;;;;;31.66;24.81;94025.71;1690452;82;21866;-54
2022/05/24 12:47:09;;;;;;;1.12;0.98;;;;;;;30.87;25.51;94022.66;1724342;80;21118;-53